Time;durP1;ratioP1;P1;durP2;ratioP2;P2;SDS_P1;SDS_P2;PMS_P1;PMS_P2;Temp;Humidity;BMP_temperature;BMP_pressure;BME280_temperature;BME280_humidity;BME280_pressure;Samples;Min_cycle;Max_cycle;Signal;HPM_P1;HPM_P2
2023/09/09 00:01:21;;;;;;;9.57;7.50;;;;;;;24.50;59.61;101547.44;4961233;28;20041;-72
2023/09/09 00:03:46;;;;;;;9.95;7.88;;;;;;;24.49;59.45;101545.75;4960124;28;20046;-72
2023/09/09 00:06:12;;;;;;;11.45;7.82;;;;;;;24.49;59.14;101550.25;4961001;28;20043;-72
2023/09/09 00:08:38;;;;;;;10.02;7.68;;;;;;;24.49;59.77;101543.09;4960399;28;20209;-73
2023/09/09 00:11:04;;;;;;;11.00;8.18;;;;;;;24.50;59.51;101543.91;4960669;28;20157;-73
2023/09/09 00:13:30;;;;;;;11.80;8.75;;;;;;;24.48;59.69;101544.06;4960682;28;20036;-73
2023/09/09 00:15:56;;;;;;;11.02;7.68;;;;;;;24.49;59.36;101544.91;4990653;28;20817;-73
2023/09/09 00:18:21;;;;;;;10.90;7.88;;;;;;;24.48;59.35;101544.06;4960366;28;20062;-73
2023/09/09 00:20:47;;;;;;;8.88;7.97;;;;;;;24.48;59.52;101536.06;4974415;28;20031;-74
2023/09/09 00:23:12;;;;;;;11.55;8.00;;;;;;;24.48;59.53;101535.25;4959629;28;20026;-72
2023/09/09 00:25:39;;;;;;;8.93;8.02;;;;;;;24.47;59.59;101539.75;4959969;28;20413;-73
2023/09/09 00:28:05;;;;;;;9.52;8.55;;;;;;;24.47;59.30;101539.75;4960048;28;20465;-72
2023/09/09 00:30:31;;;;;;;9.75;8.60;;;;;;;24.47;59.20;101537.06;4959740;28;20089;-73
2023/09/09 00:32:57;;;;;;;10.07;8.52;;;;;;;24.47;59.39;101539.75;4960294;28;20411;-72
2023/09/09 00:35:23;;;;;;;10.93;8.88;;;;;;;24.47;59.21;101537.06;4960089;28;20041;-72
2023/09/09 00:37:48;;;;;;;10.52;8.35;;;;;;;24.47;59.55;101533.56;4958055;28;20912;-73
2023/09/09 00:40:13;;;;;;;10.65;9.18;;;;;;;24.46;59.24;101532.72;4960439;28;20038;-72
2023/09/09 00:42:39;;;;;;;9.95;8.95;;;;;;;24.45;59.34;101526.56;4960560;28;20602;-72
2023/09/09 00:45:04;;;;;;;9.88;8.88;;;;;;;24.46;59.35;101527.41;4959550;28;20038;-71
2023/09/09 00:47:31;;;;;;;11.07;9.57;;;;;;;24.44;59.45;101527.53;4959653;28;20121;-73
2023/09/09 00:49:57;;;;;;;11.02;9.20;;;;;;;24.45;59.01;101529.22;4960034;28;20035;-72
2023/09/09 00:52:22;;;;;;;12.40;9.63;;;;;;;24.45;59.31;101531.06;4959773;28;20043;-72
2023/09/09 00:54:48;;;;;;;10.68;9.57;;;;;;;24.44;59.22;101529.38;4960315;28;20035;-72
2023/09/09 00:57:16;;;;;;;11.63;9.57;;;;;;;24.43;59.35;101531.22;4979075;28;20484;-73
2023/09/09 00:59:41;;;;;;;11.35;10.15;;;;;;;24.44;59.30;101534.72;4963406;28;20039;-74
2023/09/09 01:02:07;;;;;;;10.20;8.93;;;;;;;24.43;59.26;101525.91;4964246;28;20043;-73
2023/09/09 01:04:32;;;;;;;10.82;9.70;;;;;;;24.44;59.19;101532.06;4994574;28;20042;-73
2023/09/09 01:07:01;;;;;;;10.70;9.60;;;;;;;24.42;59.24;101529.53;4963013;28;20113;-73
2023/09/09 01:09:27;;;;;;;9.85;8.45;;;;;;;24.42;59.13;101532.19;4962222;28;20031;-73
2023/09/09 01:11:53;;;;;;;12.15;9.70;;;;;;;24.43;58.98;101531.22;4964155;28;20038;-73
2023/09/09 01:14:18;;;;;;;10.35;9.18;;;;;;;24.42;58.99;101537.53;4963383;28;20031;-74
2023/09/09 01:16:44;;;;;;;10.35;9.25;;;;;;;24.42;58.87;101532.19;4963453;28;20051;-74
2023/09/09 01:19:15;;;;;;;11.02;9.73;;;;;;;24.41;59.31;101530.50;4963231;28;20109;-73
2023/09/09 01:21:44;;;;;;;11.63;10.43;;;;;;;24.41;59.06;101530.50;4963756;28;20051;-73
2023/09/09 01:24:13;;;;;;;11.88;10.05;;;;;;;24.41;59.01;101532.34;4961994;28;21186;-73
2023/09/09 01:26:39;;;;;;;13.13;10.20;;;;;;;24.41;58.86;101530.50;4977773;28;20034;-73
2023/09/09 01:29:04;;;;;;;11.50;9.88;;;;;;;24.41;58.73;101530.50;4963448;28;20437;-73
2023/09/09 01:31:29;;;;;;;12.25;10.27;;;;;;;24.39;58.70;101524.50;4963677;28;20480;-72
2023/09/09 01:33:56;;;;;;;11.57;10.32;;;;;;;24.41;59.11;101519.03;4962741;28;20035;-73
2023/09/09 01:36:22;;;;;;;11.30;10.20;;;;;;;24.40;58.81;101520.88;4963657;28;20049;-73
2023/09/09 01:38:47;;;;;;;12.70;10.45;;;;;;;24.40;58.89;101520.00;4963282;28;20480;-73
2023/09/09 01:41:12;;;;;;;12.55;11.15;;;;;;;24.41;58.75;101527.03;4962779;28;20038;-74
2023/09/09 01:43:38;;;;;;;11.87;10.67;;;;;;;24.40;58.80;101528.00;4963275;28;20034;-72
2023/09/09 01:46:03;;;;;;;12.50;11.20;;;;;;;24.39;58.54;101524.50;4962842;28;21209;-73
2023/09/09 01:48:28;;;;;;;12.52;11.23;;;;;;;24.39;59.02;101532.50;4962725;28;20109;-72
2023/09/09 01:50:54;;;;;;;12.52;11.25;;;;;;;24.39;58.55;101526.34;4963093;28;20037;-73
2023/09/09 01:53:19;;;;;;;12.20;10.97;;;;;;;24.39;59.13;101527.16;4963028;28;20468;-72
2023/09/09 01:55:44;;;;;;;11.52;10.15;;;;;;;24.40;58.69;101530.66;4962261;28;20284;-73
2023/09/09 01:58:09;;;;;;;11.95;10.75;;;;;;;24.39;58.96;101526.34;4963474;28;20096;-73
2023/09/09 02:00:35;;;;;;;12.13;10.82;;;;;;;24.38;58.89;101522.00;4963190;28;20089;-74
2023/09/09 02:03:00;;;;;;;13.10;11.37;;;;;;;24.38;58.71;101522.81;4962155;28;20035;-73
2023/09/09 02:05:25;;;;;;;12.20;10.90;;;;;;;24.38;58.76;101522.81;4945161;28;20271;-73
2023/09/09 02:07:51;;;;;;;12.90;11.15;;;;;;;24.38;58.90;101522.00;4962774;28;20663;-73
2023/09/09 02:10:17;;;;;;;13.20;11.57;;;;;;;24.37;58.86;101520.31;4962322;28;20063;-73
2023/09/09 02:12:43;;;;;;;13.65;12.05;;;;;;;24.38;58.43;101522.00;4961503;28;20035;-73
2023/09/09 02:15:10;;;;;;;12.75;11.45;;;;;;;24.37;58.70;101512.31;4962783;28;20964;-74
2023/09/09 02:17:36;;;;;;;13.05;11.65;;;;;;;24.36;58.71;101514.16;4961964;28;20055;-73
2023/09/09 02:20:02;;;;;;;13.10;11.48;;;;;;;24.37;59.02;101517.63;4962478;28;20038;-73
2023/09/09 02:22:28;;;;;;;14.05;12.55;;;;;;;24.37;58.53;101514.97;4962028;28;20042;-74
2023/09/09 02:24:55;;;;;;;13.02;11.63;;;;;;;24.35;58.46;101517.78;4962550;28;20034;-73
2023/09/09 02:27:21;;;;;;;13.10;11.80;;;;;;;24.36;58.51;101518.66;4962454;28;20069;-74
2023/09/09 02:29:46;;;;;;;13.32;11.93;;;;;;;24.36;58.36;101523.97;4960916;28;20035;-73
2023/09/09 02:32:11;;;;;;;13.10;11.47;;;;;;;24.36;58.49;101522.13;4962519;28;20125;-73
2023/09/09 02:34:36;;;;;;;12.80;11.20;;;;;;;24.36;58.70;101523.97;4962185;28;20261;-73
2023/09/09 02:37:17;;;;;;;12.38;11.18;;;;;;;24.34;58.64;101520.59;4961528;28;20355;-73
2023/09/09 02:39:45;;;;;;;12.60;11.25;;;;;;;24.35;58.71;101524.94;4962157;28;20435;-73
2023/09/09 02:42:13;;;;;;;13.07;11.77;;;;;;;24.35;58.46;101520.44;4962295;28;20031;-73
2023/09/09 02:44:40;;;;;;;12.57;11.30;;;;;;;24.34;58.35;101524.13;4961475;28;20050;-73
2023/09/09 02:47:06;;;;;;;13.75;11.93;;;;;;;24.33;58.33;101518.94;4962372;28;20972;-72
2023/09/09 02:49:35;;;;;;;14.25;12.35;;;;;;;24.32;58.20;101520.75;4962173;28;20035;-73
2023/09/09 02:52:00;;;;;;;13.55;12.15;;;;;;;24.33;57.93;101525.09;4944660;28;20034;-74
2023/09/09 02:54:25;;;;;;;14.25;12.43;;;;;;;24.32;58.34;101518.09;4961955;28;20034;-73
2023/09/09 02:56:51;;;;;;;13.75;12.35;;;;;;;24.34;58.64;101517.94;4961188;28;20125;-73
2023/09/09 02:59:16;;;;;;;13.83;12.47;;;;;;;24.34;58.61;101518.78;4961582;28;20038;-73
2023/09/09 03:01:42;;;;;;;15.25;13.55;;;;;;;24.33;58.14;101522.44;4961829;28;20355;-72
2023/09/09 03:04:07;;;;;;;14.05;12.55;;;;;;;24.33;58.34;101516.28;4962112;28;20034;-72
2023/09/09 03:06:32;;;;;;;15.20;13.07;;;;;;;24.34;58.48;101517.94;4961053;28;20038;-72
2023/09/09 03:08:57;;;;;;;14.33;12.83;;;;;;;24.33;58.01;101513.63;4961895;28;20477;-72
2023/09/09 03:11:23;;;;;;;15.50;13.90;;;;;;;24.33;58.39;101518.94;4961429;28;20338;-73
2023/09/09 03:13:48;;;;;;;16.03;14.43;;;;;;;24.33;58.20;101516.28;4961026;28;20359;-72
2023/09/09 03:16:13;;;;;;;15.57;13.43;;;;;;;24.33;58.38;101517.09;4943874;28;20619;-72
2023/09/09 03:18:39;;;;;;;15.73;14.13;;;;;;;24.33;58.23;101521.59;4942693;28;20408;-72
2023/09/09 03:21:04;;;;;;;16.00;13.70;;;;;;;24.32;58.24;101519.91;4961215;28;20632;-74
2023/09/09 03:23:29;;;;;;;15.68;13.98;;;;;;;24.32;58.29;101523.41;4961570;28;20143;-73
2023/09/09 03:25:54;;;;;;;15.77;14.18;;;;;;;24.31;58.20;101524.41;4960367;28;20041;-74
2023/09/09 03:28:20;;;;;;;14.98;13.38;;;;;;;24.32;58.23;101519.91;4961468;28;20041;-73
2023/09/09 03:30:55;;;;;;;16.20;14.43;;;;;;;24.31;58.15;101518.22;4960846;28;20409;-73
2023/09/09 03:33:20;;;;;;;16.55;14.85;;;;;;;24.32;58.13;101514.59;4960990;28;20375;-73
2023/09/09 03:35:46;;;;;;;18.23;15.73;;;;;;;24.31;58.07;101518.22;4960449;28;20085;-72
2023/09/09 03:38:11;;;;;;;16.95;15.23;;;;;;;24.30;57.85;101516.56;4961707;28;20046;-74
2023/09/09 03:40:36;;;;;;;17.50;15.70;;;;;;;24.31;58.27;101512.91;4960372;28;20043;-74
2023/09/09 03:43:02;;;;;;;16.80;15.00;;;;;;;24.30;58.11;101520.06;4961132;28;20031;-74
2023/09/09 03:45:27;;;;;;;17.65;15.85;;;;;;;24.29;57.80;101514.88;4961517;28;20260;-73
2023/09/09 03:47:52;;;;;;;17.38;15.57;;;;;;;24.30;57.81;101519.25;4960427;28;20109;-74
2023/09/09 03:50:17;;;;;;;17.50;15.80;;;;;;;24.29;58.11;101521.03;4961278;28;20041;-72
2023/09/09 03:52:43;;;;;;;17.90;15.80;;;;;;;24.27;57.76;101518.56;4961307;28;20622;-73
2023/09/09 03:55:08;;;;;;;16.63;14.93;;;;;;;24.27;57.96;101521.22;4960693;28;20039;-72
2023/09/09 03:57:33;;;;;;;16.70;14.95;;;;;;;24.29;57.96;101521.03;4961227;28;20327;-73
2023/09/09 03:59:59;;;;;;;17.85;15.35;;;;;;;24.27;57.67;101523.88;4960048;28;20043;-72
2023/09/09 04:02:24;;;;;;;17.00;15.30;;;;;;;24.29;58.03;101533.53;4960557;28;20038;-73
2023/09/09 04:04:49;;;;;;;17.35;15.52;;;;;;;24.28;58.08;101532.72;4960715;28;20448;-73
2023/09/09 04:07:14;;;;;;;18.52;15.85;;;;;;;24.27;57.90;101523.88;4961352;28;20035;-73
2023/09/09 04:09:40;;;;;;;17.73;15.82;;;;;;;24.26;57.60;101527.53;4960003;28;20105;-73
2023/09/09 04:12:08;;;;;;;18.55;16.67;;;;;;;24.25;57.55;101525.84;4961219;28;20038;-74
2023/09/09 04:14:36;;;;;;;17.80;15.73;;;;;;;24.25;57.88;101523.19;4960991;28;20038;-73
2023/09/09 04:17:01;;;;;;;17.95;16.05;;;;;;;24.26;57.80;101524.88;4959487;28;20102;-73
2023/09/09 04:19:27;;;;;;;17.40;15.60;;;;;;;24.26;57.80;101527.53;4960941;28;20035;-73
2023/09/09 04:21:52;;;;;;;18.05;16.15;;;;;;;24.26;57.74;101526.69;4942437;28;20035;-74
2023/09/09 04:24:17;;;;;;;18.08;16.17;;;;;;;24.26;57.69;101532.03;4960608;28;20043;-73
2023/09/09 04:26:43;;;;;;;17.85;15.95;;;;;;;24.25;57.72;101531.16;4960405;28;20049;-74
2023/09/09 04:29:08;;;;;;;17.42;15.65;;;;;;;24.25;57.80;101525.00;4959416;28;20393;-74
2023/09/09 04:31:33;;;;;;;17.42;15.43;;;;;;;24.26;57.60;101529.34;4959710;28;20127;-74
2023/09/09 04:33:59;;;;;;;17.55;15.73;;;;;;;24.25;57.77;101528.50;4960448;28;20037;-74
2023/09/09 04:36:24;;;;;;;18.48;16.45;;;;;;;24.25;57.51;101531.16;4959610;28;20035;-73
2023/09/09 04:38:49;;;;;;;17.90;16.00;;;;;;;24.24;57.42;101534.84;4960235;28;20073;-74
2023/09/09 04:41:14;;;;;;;17.07;15.27;;;;;;;24.24;57.57;101534.84;4960430;28;20042;-73
2023/09/09 04:43:40;;;;;;;18.15;16.13;;;;;;;24.24;57.64;101536.63;4959384;28;20777;-74
2023/09/09 04:46:05;;;;;;;18.00;15.93;;;;;;;24.22;57.59;101538.63;4960541;28;20057;-74
2023/09/09 04:48:32;;;;;;;17.30;15.37;;;;;;;24.23;57.48;101538.47;4960614;28;20669;-75
2023/09/09 04:50:59;;;;;;;17.40;15.60;;;;;;;24.24;57.05;101539.31;4959629;28;20351;-73
2023/09/09 04:53:25;;;;;;;17.05;15.25;;;;;;;24.23;57.34;101537.66;4960491;28;20449;-72
2023/09/09 04:55:50;;;;;;;16.85;15.05;;;;;;;24.21;57.25;101537.78;4960248;28;20174;-72
2023/09/09 04:58:16;;;;;;;18.25;15.32;;;;;;;24.22;57.36;101539.44;4974623;28;20035;-72
2023/09/09 05:00:41;;;;;;;16.08;14.38;;;;;;;24.21;57.12;101540.47;4959794;28;20050;-73
2023/09/09 05:03:06;;;;;;;16.65;14.77;;;;;;;24.23;57.18;101545.63;4960643;28;20031;-73
2023/09/09 05:05:31;;;;;;;17.10;15.13;;;;;;;24.22;56.99;101542.13;4959791;28;20038;-73
2023/09/09 05:07:57;;;;;;;18.58;16.15;;;;;;;24.22;57.31;101542.13;4960074;28;20265;-73
2023/09/09 05:10:24;;;;;;;17.67;15.77;;;;;;;24.22;57.09;101539.44;4959928;28;20039;-73
2023/09/09 05:12:49;;;;;;;16.67;14.98;;;;;;;24.22;57.08;101543.94;4959688;28;20364;-72
2023/09/09 05:15:16;;;;;;;18.42;16.52;;;;;;;24.22;57.28;101543.94;4959778;28;20399;-72
2023/09/09 05:17:42;;;;;;;18.25;16.25;;;;;;;24.18;56.93;101540.75;4959753;28;20050;-72
2023/09/09 05:20:10;;;;;;;17.27;15.40;;;;;;;24.21;57.30;101547.59;4959485;28;20452;-72
2023/09/09 05:22:35;;;;;;;17.73;15.82;;;;;;;24.21;57.13;101539.59;4958289;28;20098;-72
2023/09/09 05:25:01;;;;;;;18.17;16.27;;;;;;;24.20;56.94;101544.09;4942231;28;20039;-73
2023/09/09 05:27:26;;;;;;;17.20;15.40;;;;;;;24.20;56.96;101549.41;4959413;28;20035;-72
2023/09/09 05:29:51;;;;;;;16.92;15.23;;;;;;;24.19;57.04;101541.56;4959735;28;20489;-73
2023/09/09 05:32:17;;;;;;;17.15;15.45;;;;;;;24.19;57.32;101547.72;4959716;28;20041;-72
2023/09/09 05:34:42;;;;;;;17.95;16.08;;;;;;;24.19;57.45;101553.06;4959884;28;20114;-73
2023/09/09 05:37:10;;;;;;;18.10;16.15;;;;;;;24.20;57.16;101556.59;4960308;28;20117;-72
2023/09/09 05:39:35;;;;;;;17.33;15.57;;;;;;;24.19;57.18;101561.03;4959192;28;20392;-72
2023/09/09 05:42:01;;;;;;;18.20;16.40;;;;;;;24.20;56.85;101560.06;4961999;28;20034;-72
2023/09/09 05:44:26;;;;;;;17.50;15.73;;;;;;;24.19;57.01;101557.56;4963046;28;20427;-73
2023/09/09 05:46:52;;;;;;;18.38;16.48;;;;;;;24.18;56.95;101559.38;4962076;28;20043;-71
2023/09/09 05:49:17;;;;;;;16.80;15.10;;;;;;;24.19;57.07;101552.22;4963440;28;20035;-72
2023/09/09 05:51:43;;;;;;;17.67;15.90;;;;;;;24.18;56.94;101564.72;4963348;28;20455;-71
2023/09/09 05:54:08;;;;;;;16.63;15.03;;;;;;;24.20;56.87;101560.06;4962316;28;20269;-72
2023/09/09 05:56:34;;;;;;;17.67;15.87;;;;;;;24.23;57.07;101567.78;4963623;28;20323;-71
2023/09/09 05:58:59;;;;;;;16.85;15.25;;;;;;;24.26;57.33;101569.31;4963087;28;20287;-72
2023/09/09 06:01:24;;;;;;;16.73;15.13;;;;;;;24.28;56.90;101570.00;4945127;28;20034;-72
2023/09/09 06:03:54;;;;;;;16.43;14.83;;;;;;;24.30;57.24;101567.19;4962774;28;20026;-72
2023/09/09 06:06:20;;;;;;;16.17;14.57;;;;;;;24.28;56.92;101567.31;4976277;28;20285;-73
2023/09/09 06:08:45;;;;;;;16.05;14.35;;;;;;;24.29;57.23;101576.16;4961412;28;20107;-70
2023/09/09 06:11:11;;;;;;;16.20;14.63;;;;;;;24.29;57.25;101571.66;4962874;28;20053;-73
2023/09/09 06:13:37;;;;;;;14.73;13.32;;;;;;;24.30;57.32;101575.16;4962637;28;20129;-71
2023/09/09 06:16:02;;;;;;;15.85;14.35;;;;;;;24.31;57.49;101577.69;4955433;28;20457;-74
2023/09/09 06:18:28;;;;;;;15.02;13.52;;;;;;;24.28;57.45;101575.31;4943918;29;20493;-70
2023/09/09 06:20:53;;;;;;;16.65;14.95;;;;;;;24.27;57.56;101587.81;4943209;29;20500;-73
2023/09/09 06:23:19;;;;;;;16.20;14.60;;;;;;;24.28;57.54;101585.97;4942806;29;20495;-72
2023/09/09 06:25:44;;;;;;;16.95;14.25;;;;;;;24.27;57.68;101587.81;4941424;29;20043;-74
2023/09/09 06:28:09;;;;;;;17.08;15.38;;;;;;;24.31;57.22;101587.47;4943463;29;20031;-80
2023/09/09 06:30:35;;;;;;;15.75;14.20;;;;;;;24.31;57.54;101590.16;4942571;29;20039;-75
2023/09/09 06:33:02;;;;;;;15.95;14.35;;;;;;;24.31;57.68;101587.47;4943554;29;20306;-76
2023/09/09 06:35:28;;;;;;;15.15;13.40;;;;;;;24.30;57.49;101594.66;4942768;29;20046;-72
2023/09/09 06:37:53;;;;;;;15.50;13.90;;;;;;;24.31;57.61;101598.13;4943214;29;20027;-72
2023/09/09 06:40:18;;;;;;;15.50;13.88;;;;;;;24.28;57.51;101593.97;4943154;29;20066;-76
2023/09/09 06:42:44;;;;;;;15.57;13.98;;;;;;;24.29;57.51;101600.94;4942309;29;20024;-76
2023/09/09 06:45:12;;;;;;;16.48;14.77;;;;;;;24.30;57.73;101596.47;4943372;29;20059;-76
2023/09/09 06:47:38;;;;;;;16.20;14.43;;;;;;;24.29;57.47;101595.63;4943689;29;20047;-76
2023/09/09 06:50:04;;;;;;;16.13;14.52;;;;;;;24.31;57.25;101600.81;4925299;29;20067;-77
2023/09/09 06:52:29;;;;;;;15.55;14.05;;;;;;;24.30;57.71;101602.63;4943366;28;20500;-76
2023/09/09 06:54:54;;;;;;;17.67;14.75;;;;;;;24.31;57.48;101606.13;4943407;29;20039;-78
2023/09/09 06:57:19;;;;;;;15.30;13.80;;;;;;;24.31;57.34;101607.00;4942705;29;20114;-76
2023/09/09 06:59:45;;;;;;;15.33;13.93;;;;;;;24.29;57.75;101610.78;4942433;29;20269;-74
2023/09/09 07:02:10;;;;;;;15.27;13.80;;;;;;;24.28;57.49;101609.94;4942933;29;20743;-75
2023/09/09 07:04:35;;;;;;;15.82;14.07;;;;;;;24.29;57.72;101614.25;4942121;29;20465;-70
2023/09/09 07:07:00;;;;;;;15.00;13.50;;;;;;;24.26;57.77;101614.59;4942514;29;20568;-76
2023/09/09 07:09:26;;;;;;;15.15;13.40;;;;;;;24.26;57.71;101614.59;4894450;28;20977;-76
2023/09/09 07:11:51;;;;;;;14.70;13.18;;;;;;;24.30;57.75;101612.47;4941644;29;20391;-77
2023/09/09 07:14:16;;;;;;;14.88;13.38;;;;;;;24.30;57.67;101618.63;4943014;29;20027;-74
2023/09/09 07:16:42;;;;;;;15.02;13.52;;;;;;;24.30;58.07;101618.63;4953926;28;20134;-75
2023/09/09 07:19:10;;;;;;;14.73;13.13;;;;;;;24.29;58.26;101616.94;4961569;28;20092;-76
2023/09/09 07:21:35;;;;;;;14.20;12.80;;;;;;;24.28;58.02;101615.28;4961515;28;20402;-76
2023/09/09 07:24:00;;;;;;;16.17;14.53;;;;;;;24.30;58.34;101620.44;4961444;28;20046;-73
2023/09/09 07:26:26;;;;;;;15.80;14.13;;;;;;;24.29;58.28;101624.09;4961308;28;20292;-75
2023/09/09 07:28:52;;;;;;;15.50;13.55;;;;;;;24.31;57.96;101624.78;4917244;28;20055;-79
2023/09/09 07:31:18;;;;;;;17.30;15.50;;;;;;;24.29;58.18;101635.56;4960918;28;20041;-75
2023/09/09 07:33:43;;;;;;;19.25;17.02;;;;;;;24.29;58.58;101627.59;4960715;28;20399;-75
2023/09/09 07:36:09;;;;;;;19.77;17.70;;;;;;;24.33;58.38;101633.47;4992964;28;20177;-82
2023/09/09 07:38:35;;;;;;;19.92;16.25;;;;;;;24.40;58.41;101638.06;4963382;28;21058;-79
2023/09/09 07:41:02;;;;;;;19.63;17.55;;;;;;;24.45;58.19;101633.13;4961752;28;20129;-73
2023/09/09 07:43:28;;;;;;;18.23;16.23;;;;;;;24.43;58.32;101642.25;4961170;28;20463;-73
2023/09/09 07:45:54;;;;;;;17.98;15.93;;;;;;;24.44;58.64;101635.94;4960900;28;20038;-77
2023/09/09 07:48:20;;;;;;;18.42;16.42;;;;;;;24.50;58.55;101643.34;4993409;28;20038;-83
2023/09/09 07:50:54;;;;;;;17.92;16.02;;;;;;;24.51;58.27;101639.69;4961800;28;20306;-76
2023/09/09 07:53:20;;;;;;;18.48;16.58;;;;;;;24.56;58.18;101640.13;4999599;28;20053;-72
2023/09/09 07:55:49;;;;;;;17.90;15.90;;;;;;;24.58;58.05;101637.31;4961912;28;20142;-79
2023/09/09 07:58:15;;;;;;;18.90;16.83;;;;;;;24.61;58.31;101637.84;4962559;28;20038;-77
2023/09/09 08:00:41;;;;;;;18.98;15.60;;;;;;;24.63;58.19;101640.38;4960692;28;20471;-78
2023/09/09 08:03:07;;;;;;;18.30;16.40;;;;;;;24.63;58.57;101638.53;4962481;28;20041;-77
2023/09/09 08:05:33;;;;;;;17.88;15.65;;;;;;;24.62;58.18;101639.53;4992806;28;20126;-75
2023/09/09 08:07:59;;;;;;;16.48;14.75;;;;;;;24.56;58.49;101644.56;4960391;28;20041;-73
2023/09/09 08:10:24;;;;;;;17.00;14.80;;;;;;;24.57;58.69;101648.94;4962292;28;20117;-74
2023/09/09 08:12:49;;;;;;;15.88;14.18;;;;;;;24.61;58.79;101650.34;4963223;28;20245;-73
2023/09/09 08:15:15;;;;;;;17.00;15.30;;;;;;;24.67;58.74;101647.06;4962544;28;20035;-75
2023/09/09 08:17:40;;;;;;;16.83;15.02;;;;;;;24.68;58.48;101651.41;4963406;28;20073;-70
2023/09/09 08:20:07;;;;;;;16.05;14.27;;;;;;;24.67;58.63;101651.56;4960776;28;20049;-77
2023/09/09 08:22:34;;;;;;;17.10;15.30;;;;;;;24.68;58.61;101646.09;4960353;28;20666;-75
2023/09/09 08:25:00;;;;;;;17.20;14.80;;;;;;;24.69;58.82;101649.56;4962243;28;20045;-78
2023/09/09 08:27:25;;;;;;;16.48;14.63;;;;;;;24.72;58.58;101655.47;4963099;28;20039;-77
2023/09/09 08:29:50;;;;;;;16.15;14.18;;;;;;;24.74;58.83;101656.16;4961704;28;20352;-77
2023/09/09 08:32:16;;;;;;;15.20;13.60;;;;;;;24.76;58.66;101654.16;4965229;28;20046;-77
2023/09/09 08:34:41;;;;;;;15.27;13.68;;;;;;;24.78;58.69;101659.34;4966042;28;20673;-77
2023/09/09 08:37:08;;;;;;;16.50;14.65;;;;;;;24.79;58.79;101658.38;4961567;28;20126;-75
2023/09/09 08:39:33;;;;;;;16.52;14.75;;;;;;;24.78;59.13;101659.34;4961148;28;20042;-75
2023/09/09 08:42:13;;;;;;;16.17;14.40;;;;;;;24.76;59.09;101656.00;4961836;28;20066;-74
2023/09/09 08:44:59;;;;;;;16.30;13.65;;;;;;;24.76;58.94;101667.50;4960592;28;20304;-73
2023/09/09 08:47:26;;;;;;;15.65;13.90;;;;;;;24.78;59.09;101664.69;4961321;28;20035;-72
2023/09/09 08:49:52;;;;;;;18.65;14.25;;;;;;;24.75;59.16;101668.50;4961144;28;20115;-74
2023/09/09 08:52:23;;;;;;;16.52;13.38;;;;;;;24.75;59.61;101665.84;4962033;28;20070;-77
2023/09/09 08:54:49;;;;;;;13.93;11.60;;;;;;;24.71;60.51;101659.13;4960074;28;20035;-71
2023/09/09 08:57:15;;;;;;;16.38;12.38;;;;;;;24.72;60.50;101665.28;4960382;28;20085;-73
2023/09/09 08:59:42;;;;;;;16.75;13.95;;;;;;;24.74;60.55;101661.47;4961224;28;20089;-77
2023/09/09 09:02:10;;;;;;;16.45;12.82;;;;;;;24.75;60.66;101659.66;4960316;28;20081;-75
2023/09/09 09:04:36;;;;;;;16.02;12.68;;;;;;;24.75;60.85;101668.50;4960760;28;20093;-78
2023/09/09 09:07:02;;;;;;;17.58;12.50;;;;;;;24.77;60.84;101668.34;4960759;28;20115;-75
2023/09/09 09:09:29;;;;;;;14.20;11.50;;;;;;;24.77;60.68;101671.84;4961109;28;20026;-76
2023/09/09 09:11:58;;;;;;;14.52;11.32;;;;;;;24.81;60.56;101672.38;4961825;28;20053;-75
2023/09/09 09:14:23;;;;;;;16.20;12.07;;;;;;;24.80;60.35;101670.69;4961964;28;20484;-79
2023/09/09 09:16:50;;;;;;;14.15;11.55;;;;;;;24.81;60.63;101675.06;4963022;28;20062;-77
2023/09/09 09:19:24;;;;;;;14.65;11.60;;;;;;;24.80;60.77;101674.22;4965106;28;20045;-77
2023/09/09 09:21:50;;;;;;;14.32;11.27;;;;;;;24.84;60.54;101680.09;4965370;28;20061;-75
2023/09/09 09:24:15;;;;;;;13.27;10.88;;;;;;;24.83;60.64;101674.91;4966091;28;20492;-72
2023/09/09 09:26:40;;;;;;;14.50;9.82;;;;;;;24.80;60.82;101684.88;4994687;28;20132;-71
2023/09/09 09:29:06;;;;;;;12.03;10.03;;;;;;;24.78;60.58;101673.53;4964174;28;20039;-71
2023/09/09 09:31:32;;;;;;;14.02;11.02;;;;;;;24.81;60.65;101675.06;4963698;28;20894;-73
2023/09/09 09:33:59;;;;;;;17.42;12.27;;;;;;;24.83;60.61;101673.06;4964684;28;20027;-72
2023/09/09 09:36:25;;;;;;;12.95;11.50;;;;;;;24.83;60.41;101667.72;4964273;28;20035;-72
2023/09/09 09:38:51;;;;;;;15.85;11.30;;;;;;;24.83;60.55;101670.41;4963558;28;20035;-74
2023/09/09 09:41:17;;;;;;;14.13;11.38;;;;;;;24.83;60.33;101662.41;4964062;28;20069;-71
2023/09/09 09:43:47;;;;;;;13.35;10.95;;;;;;;24.83;60.45;101661.56;4963985;28;20480;-73
2023/09/09 09:46:22;;;;;;;14.23;10.73;;;;;;;24.84;60.21;101666.75;4963769;28;20170;-73
2023/09/09 09:48:48;;;;;;;10.32;8.95;;;;;;;24.82;60.57;101676.75;4963755;28;20035;-73
2023/09/09 09:51:13;;;;;;;11.95;8.85;;;;;;;24.77;60.63;101671.84;4963325;28;20074;-73
2023/09/09 09:53:48;;;;;;;10.60;9.15;;;;;;;24.77;60.35;101671.84;4963650;28;20129;-73
2023/09/09 09:56:14;;;;;;;11.25;8.00;;;;;;;24.83;59.42;101673.06;4958795;28;20596;-73
2023/09/09 09:58:44;;;;;;;11.32;7.70;;;;;;;24.84;58.76;101672.09;4961469;28;20035;-72
2023/09/09 10:01:10;;;;;;;8.43;7.03;;;;;;;24.83;59.03;101670.41;4961453;28;20042;-75
2023/09/09 10:03:47;;;;;;;9.25;7.30;;;;;;;24.83;59.05;101669.56;4961409;28;20061;-72
2023/09/09 10:06:18;;;;;;;7.85;6.55;;;;;;;24.84;58.68;101666.75;4959013;28;20031;-74
2023/09/09 10:09:05;;;;;;;9.27;6.78;;;;;;;24.82;58.88;101660.75;4996740;28;20357;-74
2023/09/09 10:11:39;;;;;;;7.75;6.32;;;;;;;24.85;58.56;101665.78;4967069;28;20112;-74
2023/09/09 10:14:14;;;;;;;10.02;6.10;;;;;;;24.86;58.27;101669.28;4965931;28;20042;-72
2023/09/09 10:16:41;;;;;;;7.75;6.28;;;;;;;24.87;58.27;101663.78;4964102;28;20108;-73
2023/09/09 10:19:11;;;;;;;8.77;6.65;;;;;;;24.87;58.76;101660.31;4996379;28;20043;-73
2023/09/09 10:21:37;;;;;;;8.23;5.78;;;;;;;24.87;58.85;101666.47;4995596;28;20043;-75
2023/09/09 10:24:05;;;;;;;7.97;5.97;;;;;;;24.88;58.83;101664.63;4964165;28;20046;-72
2023/09/09 10:26:31;;;;;;;9.32;6.15;;;;;;;24.88;58.97;101662.81;4963905;28;20125;-73
2023/09/09 10:28:59;;;;;;;10.95;6.50;;;;;;;24.88;59.13;101664.63;4966779;28;20440;-71
2023/09/09 10:31:27;;;;;;;7.95;6.20;;;;;;;24.90;58.97;101655.50;4965978;28;20031;-71
2023/09/09 10:33:56;;;;;;;8.43;6.25;;;;;;;24.90;59.09;101665.34;4964330;28;20047;-74
2023/09/09 10:36:22;;;;;;;8.23;6.13;;;;;;;24.92;59.02;101661.50;4962469;28;20085;-71
2023/09/09 10:38:48;;;;;;;9.07;6.00;;;;;;;24.92;58.96;101660.69;4961409;28;20038;-73
2023/09/09 10:41:16;;;;;;;8.80;6.22;;;;;;;24.93;59.06;101663.19;4962623;28;20038;-80
2023/09/09 10:43:41;;;;;;;7.78;5.70;;;;;;;24.91;58.98;101657.19;4960773;28;20035;-79
2023/09/09 10:46:09;;;;;;;8.05;5.75;;;;;;;24.90;58.97;101652.00;4961081;28;20049;-78
2023/09/09 10:48:34;;;;;;;7.30;5.97;;;;;;;24.88;59.18;101653.97;4962486;28;20085;-78
2023/09/09 10:51:06;;;;;;;7.47;5.95;;;;;;;24.85;59.25;101657.78;4960443;28;20447;-77
2023/09/09 10:53:32;;;;;;;7.22;6.03;;;;;;;24.86;59.38;101653.28;4962188;28;20065;-79
2023/09/09 10:55:59;;;;;;;8.68;6.30;;;;;;;24.85;59.48;101652.44;4961558;28;20074;-78
2023/09/09 10:58:34;;;;;;;10.70;6.53;;;;;;;24.84;59.62;101658.75;4960715;28;20035;-76
2023/09/09 11:01:02;;;;;;;7.88;6.18;;;;;;;24.84;59.32;101655.25;4992932;28;20039;-75
2023/09/09 11:03:36;;;;;;;9.38;6.32;;;;;;;24.83;59.42;101654.41;4961568;28;20045;-77
2023/09/09 11:06:03;;;;;;;10.07;6.13;;;;;;;24.85;59.50;101660.44;4953653;28;20046;-71
2023/09/09 11:08:29;;;;;;;8.65;6.68;;;;;;;24.85;59.13;101656.91;4961089;28;20478;-72